createdAt,value
2018-08-24T00:02:07.415Z,81.44
2018-08-24T00:04:35.476Z,81.04
2018-08-24T00:07:03.541Z,81.13
2018-08-24T00:09:31.643Z,81.44
2018-08-24T00:11:59.707Z,81.48
2018-08-24T00:14:27.784Z,81.87
2018-08-24T00:16:55.883Z,82.00
2018-08-24T00:19:23.984Z,82.42
2018-08-24T00:21:52.092Z,82.08
2018-08-24T00:24:20.165Z,82.01
2018-08-24T00:26:48.270Z,82.12
2018-08-24T00:29:16.435Z,82.55
2018-08-24T00:31:44.598Z,82.78
2018-08-24T00:34:12.603Z,81.90
2018-08-24T00:36:40.711Z,82.02
2018-08-24T00:39:09.468Z,82.31
2018-08-24T00:41:37.615Z,82.28
2018-08-24T00:44:05.795Z,82.28
2018-08-24T00:46:33.866Z,82.50
2018-08-24T00:49:01.931Z,82.89
2018-08-24T00:51:30.011Z,82.76
2018-08-24T00:53:58.091Z,83.02
2018-08-24T00:59:00.631Z,82.12
2018-08-24T01:01:28.692Z,83.20
2018-08-24T01:03:56.771Z,82.59
2018-08-24T01:06:25.423Z,84.35
2018-08-24T01:08:53.491Z,85.07
2018-08-24T01:11:25.746Z,84.39
2018-08-24T01:13:54.098Z,84.25
2018-08-24T01:16:27.562Z,84.65
2018-08-24T01:18:55.623Z,84.76
2018-08-24T01:21:23.710Z,84.44
2018-08-24T01:23:52.043Z,84.75
2018-08-24T01:26:22.077Z,84.69
2018-08-24T01:28:50.787Z,84.82
2018-08-24T01:31:18.907Z,84.68
2018-08-24T01:33:46.976Z,84.99
2018-08-24T01:36:15.032Z,84.97
2018-08-24T01:38:43.102Z,85.13
2018-08-24T01:41:11.175Z,85.29
2018-08-24T01:43:39.261Z,84.91
2018-08-24T01:46:09.342Z,85.69
2018-08-24T01:48:37.700Z,85.72
2018-08-24T01:51:05.812Z,85.80
2018-08-24T01:53:33.962Z,85.94
2018-08-24T01:56:02.031Z,85.94
2018-08-24T01:58:30.100Z,85.90
2018-08-24T02:00:58.193Z,84.74
2018-08-24T02:03:26.274Z,85.08
2018-08-24T02:06:09.711Z,85.41
2018-08-24T02:08:38.333Z,86.73
2018-08-24T02:11:10.755Z,86.37
2018-08-24T02:13:44.447Z,87.12
2018-08-24T02:16:12.515Z,87.60
2018-08-24T02:18:45.855Z,87.13
2018-08-24T02:21:19.210Z,87.73
2018-08-24T02:23:47.279Z,87.92
2018-08-24T02:26:15.341Z,87.75
2018-08-24T02:28:43.408Z,87.07
2018-08-24T02:31:11.538Z,87.56
2018-08-24T02:33:40.163Z,87.32
2018-08-24T02:36:09.339Z,87.21
2018-08-24T02:38:37.495Z,87.85
2018-08-24T02:41:05.612Z,88.17
2018-08-24T02:43:33.695Z,87.87
2018-08-24T02:46:01.769Z,88.06
2018-08-24T02:48:29.829Z,88.72
2018-08-24T02:50:57.884Z,89.27
2018-08-24T02:53:26.160Z,89.39
2018-08-24T02:55:54.215Z,89.97
2018-08-24T02:58:22.300Z,90.15
2018-08-24T03:00:50.364Z,89.70
2018-08-24T03:03:18.476Z,90.62
2018-08-24T03:05:46.537Z,90.68
2018-08-24T03:08:14.650Z,90.75
2018-08-24T03:10:42.680Z,89.69
2018-08-24T03:13:10.750Z,88.97
2018-08-24T03:15:38.831Z,88.06
2018-08-24T03:18:06.893Z,88.38
2018-08-24T03:20:34.963Z,88.82
2018-08-24T03:23:03.080Z,88.28
2018-08-24T03:25:31.227Z,88.65
2018-08-24T03:27:59.325Z,89.15
2018-08-24T03:30:27.395Z,89.36
2018-08-24T03:32:55.447Z,89.75
2018-08-24T03:35:23.538Z,90.20
2018-08-24T03:37:51.595Z,90.25
2018-08-24T03:40:19.656Z,90.26
2018-08-24T03:42:47.721Z,90.85
2018-08-24T03:45:15.836Z,90.93
2018-08-24T03:47:43.899Z,91.49
2018-08-24T03:50:11.964Z,91.72
2018-08-24T03:52:40.055Z,91.61
2018-08-24T03:55:08.072Z,91.69
2018-08-24T03:57:36.127Z,91.99
2018-08-24T04:00:04.306Z,92.31
2018-08-24T04:02:32.379Z,92.09
2018-08-24T04:05:00.443Z,91.37
2018-08-24T04:07:28.515Z,92.39
2018-08-24T04:09:56.610Z,91.54
2018-08-24T04:12:24.657Z,90.74
2018-08-24T04:14:52.711Z,90.96
2018-08-24T04:17:26.080Z,91.23
2018-08-24T04:19:54.213Z,91.48
2018-08-24T04:22:22.330Z,91.11
2018-08-24T04:24:50.398Z,89.91
2018-08-24T04:27:18.472Z,89.71
2018-08-24T04:29:46.602Z,90.98
2018-08-24T04:32:14.664Z,90.96
2018-08-24T04:34:42.764Z,90.74
2018-08-24T04:37:10.844Z,90.89
2018-08-24T04:39:38.929Z,90.79
2018-08-24T04:42:06.988Z,91.09
2018-08-24T04:44:35.068Z,91.52
2018-08-24T04:47:03.132Z,91.39
2018-08-24T04:49:31.219Z,89.67
2018-08-24T04:51:59.291Z,89.99
2018-08-24T04:54:27.341Z,89.99
2018-08-24T04:56:55.392Z,89.90
2018-08-24T04:59:23.527Z,90.91
2018-08-24T05:01:51.609Z,91.56
2018-08-24T05:04:19.669Z,91.67
2018-08-24T05:06:47.740Z,91.88
2018-08-24T05:09:15.814Z,91.95
2018-08-24T05:11:43.878Z,91.33
2018-08-24T05:14:11.962Z,91.58
2018-08-24T05:16:40.031Z,91.38
2018-08-24T05:19:08.116Z,91.30
2018-08-24T05:21:36.171Z,90.93
2018-08-24T05:24:04.379Z,91.65
2018-08-24T05:26:32.479Z,91.20
2018-08-24T05:29:00.562Z,90.65
2018-08-24T05:31:28.631Z,90.58
2018-08-24T05:33:56.732Z,90.89
2018-08-24T05:36:24.832Z,90.66
2018-08-24T05:38:52.897Z,91.41
2018-08-24T05:41:21.003Z,90.93
2018-08-24T05:43:49.075Z,90.37
2018-08-24T05:46:17.131Z,90.58
2018-08-24T05:48:45.289Z,89.44
2018-08-24T05:51:13.367Z,89.67
2018-08-24T05:53:41.424Z,90.16
2018-08-24T05:56:09.492Z,89.12
2018-08-24T05:58:37.674Z,89.19
2018-08-24T06:01:05.736Z,88.15
2018-08-24T06:03:33.835Z,87.88
2018-08-24T06:06:02.995Z,86.66
2018-08-24T06:08:31.776Z,85.58
2018-08-24T06:11:00.667Z,86.18
2018-08-24T06:13:28.740Z,85.43
2018-08-24T06:18:31.335Z,83.81
2018-08-24T06:20:59.409Z,83.14
2018-08-24T06:23:27.635Z,83.22
2018-08-24T06:25:55.715Z,82.14
2018-08-24T06:28:23.775Z,81.53
2018-08-24T06:30:51.868Z,81.84
2018-08-24T06:33:22.735Z,80.37
2018-08-24T06:35:51.009Z,79.02
2018-08-24T06:38:19.103Z,78.17
2018-08-24T06:40:47.179Z,77.67
2018-08-24T06:43:15.248Z,78.81
2018-08-24T06:45:43.329Z,76.56
2018-08-24T06:48:11.388Z,73.21
2018-08-24T06:50:39.487Z,72.39
2018-08-24T06:53:07.633Z,71.15
2018-08-24T06:55:35.606Z,68.93
2018-08-24T06:58:03.751Z,66.95
2018-08-24T07:00:32.640Z,66.35
2018-08-24T07:03:01.742Z,66.36
2018-08-24T07:05:29.947Z,66.45
2018-08-24T07:07:58.038Z,66.46
2018-08-24T07:10:26.132Z,66.22
2018-08-24T07:12:54.293Z,67.34
2018-08-24T07:15:22.375Z,66.26
2018-08-24T07:17:55.861Z,66.53
2018-08-24T07:20:24.005Z,66.29
2018-08-24T07:22:52.205Z,66.05
2018-08-24T07:25:20.318Z,66.44
2018-08-24T07:27:48.427Z,68.20
2018-08-24T07:30:16.500Z,68.16
2018-08-24T07:32:44.569Z,69.29
2018-08-24T07:35:13.311Z,63.89
2018-08-24T07:37:41.384Z,64.02
2018-08-24T07:40:09.463Z,66.25
2018-08-24T07:42:37.535Z,63.50
2018-08-24T07:45:05.600Z,62.14
2018-08-24T07:47:33.673Z,62.64
2018-08-24T07:50:01.784Z,62.83
2018-08-24T07:52:29.858Z,62.58
2018-08-24T07:54:57.922Z,61.68
2018-08-24T07:57:26.009Z,60.93
2018-08-24T07:59:54.133Z,60.82
2018-08-24T08:02:27.547Z,61.06
2018-08-24T08:04:55.631Z,60.55
2018-08-24T08:07:23.732Z,60.98
2018-08-24T08:09:51.847Z,59.43
2018-08-24T08:12:19.935Z,60.47
2018-08-24T08:14:53.276Z,59.82
2018-08-24T08:17:21.417Z,58.48
2018-08-24T08:19:49.486Z,59.29
2018-08-24T08:22:17.568Z,58.70
2018-08-24T08:24:45.710Z,59.11
2018-08-24T08:27:13.765Z,59.70
2018-08-24T08:29:47.068Z,59.52
2018-08-24T08:32:15.152Z,57.95
2018-08-24T08:34:48.638Z,59.56
2018-08-24T08:37:16.744Z,58.73
2018-08-24T08:39:44.859Z,58.93
2018-08-24T08:42:12.929Z,60.43
2018-08-24T08:44:40.992Z,58.16
2018-08-24T08:47:09.143Z,59.01
2018-08-24T08:49:37.287Z,57.17
2018-08-24T08:52:05.475Z,57.59
2018-08-24T08:54:33.590Z,57.44
2018-08-24T08:57:01.718Z,56.12
2018-08-24T08:59:29.794Z,55.78
2018-08-24T09:01:57.857Z,54.46
2018-08-24T09:04:25.955Z,54.74
2018-08-24T09:06:54.014Z,59.10
2018-08-24T09:09:22.092Z,61.16
2018-08-24T09:11:50.403Z,60.17
2018-08-24T09:14:18.506Z,64.16
2018-08-24T09:16:46.565Z,63.46
2018-08-24T09:19:20.054Z,63.81
2018-08-24T09:21:53.544Z,63.28
2018-08-24T09:24:27.039Z,64.64
2018-08-24T09:27:00.376Z,65.42
2018-08-24T09:29:29.171Z,67.05
2018-08-24T09:31:58.896Z,68.50
2018-08-24T09:34:26.967Z,69.75
2018-08-24T09:36:55.126Z,74.25
2018-08-24T09:39:29.397Z,74.77
2018-08-24T09:41:59.240Z,76.29
2018-08-24T09:44:27.355Z,74.73
2018-08-24T09:47:00.844Z,75.71
2018-08-24T09:49:31.335Z,78.27
2018-08-24T09:51:59.433Z,81.00
2018-08-24T09:54:27.546Z,80.65
2018-08-24T09:56:55.670Z,79.64
2018-08-24T09:59:23.813Z,80.34
2018-08-24T10:01:57.135Z,82.27
2018-08-24T10:04:30.654Z,83.91
2018-08-24T10:07:04.128Z,84.16
2018-08-24T10:09:32.242Z,84.15
2018-08-24T10:12:00.295Z,85.62
2018-08-24T10:14:28.391Z,86.36
2018-08-24T10:16:56.457Z,87.64
2018-08-24T10:19:24.596Z,87.29
2018-08-24T10:21:52.651Z,88.17
2018-08-24T10:24:20.722Z,88.92
2018-08-24T10:26:48.799Z,88.34
2018-08-24T10:29:16.927Z,88.46
2018-08-24T10:31:44.959Z,88.10
2018-08-24T10:34:13.056Z,86.92
2018-08-24T10:36:41.116Z,84.66
2018-08-24T10:39:10.461Z,84.29
2018-08-24T10:41:38.427Z,84.82
2018-08-24T10:44:06.583Z,85.13
2018-08-24T10:46:34.683Z,84.19
2018-08-24T10:49:02.951Z,86.51
2018-08-24T10:51:31.096Z,86.68
2018-08-24T10:53:59.144Z,85.80
2018-08-24T10:56:27.296Z,84.09
2018-08-24T10:58:55.411Z,84.95
2018-08-24T11:01:23.511Z,85.06
2018-08-24T11:03:51.597Z,83.74
2018-08-24T11:06:19.683Z,80.28
2018-08-24T11:08:47.736Z,79.15
2018-08-24T11:11:15.843Z,80.81
2018-08-24T11:13:44.151Z,79.27
2018-08-24T11:16:12.479Z,82.26
2018-08-24T11:18:40.552Z,77.42
2018-08-24T11:21:08.639Z,76.92
2018-08-24T11:23:36.809Z,76.28
2018-08-24T11:26:04.970Z,76.38
2018-08-24T11:28:33.056Z,76.04
2018-08-24T11:31:01.091Z,76.06
2018-08-24T11:33:29.127Z,75.45
2018-08-24T11:35:57.268Z,74.68
2018-08-24T11:38:25.383Z,75.44
2018-08-24T11:40:53.455Z,74.26
2018-08-24T11:43:21.527Z,71.60
2018-08-24T11:45:49.619Z,72.34
2018-08-24T11:48:17.685Z,71.53
2018-08-24T11:50:45.751Z,72.72
2018-08-24T11:53:13.816Z,69.60
2018-08-24T11:55:41.884Z,70.27
2018-08-24T11:58:09.943Z,68.98
2018-08-24T12:00:38.001Z,69.87
2018-08-24T12:03:06.101Z,70.01
2018-08-24T12:05:34.180Z,69.34
2018-08-24T12:08:02.432Z,70.74
2018-08-24T12:10:30.344Z,68.73
2018-08-24T12:12:58.735Z,68.18
2018-08-24T12:15:26.804Z,67.63
2018-08-24T12:17:55.173Z,68.57
2018-08-24T12:20:23.235Z,68.43
2018-08-24T12:22:51.609Z,66.33
2018-08-24T12:25:19.646Z,65.49
2018-08-24T12:27:47.724Z,63.17
2018-08-24T12:30:15.800Z,62.76
2018-08-24T12:32:43.868Z,61.83
2018-08-24T12:35:11.988Z,60.29
2018-08-24T12:37:45.279Z,59.88
2018-08-24T12:40:13.955Z,60.93
2018-08-24T12:42:42.047Z,60.92
2018-08-24T12:45:10.104Z,61.74
2018-08-24T12:47:38.367Z,62.86
2018-08-24T12:50:07.281Z,62.69
2018-08-24T12:52:35.388Z,62.18
2018-08-24T12:55:03.547Z,63.87
2018-08-24T12:57:31.894Z,60.78
2018-08-24T13:00:00.659Z,60.91
2018-08-24T13:02:28.661Z,60.13
2018-08-24T13:04:56.945Z,60.10
2018-08-24T13:07:25.035Z,59.97
2018-08-24T13:09:53.155Z,60.25
2018-08-24T13:12:21.287Z,59.64
2018-08-24T13:14:49.359Z,57.84
2018-08-24T13:17:17.544Z,57.53
2018-08-24T13:19:45.639Z,56.73
2018-08-24T13:22:13.711Z,56.55
2018-08-24T13:24:41.837Z,56.26
2018-08-24T13:27:09.983Z,55.02
2018-08-24T13:29:38.008Z,55.90
2018-08-24T13:32:06.240Z,56.67
2018-08-24T13:34:34.298Z,55.40
2018-08-24T13:37:02.366Z,56.13
2018-08-24T13:39:30.443Z,56.49
2018-08-24T13:41:58.595Z,56.14
2018-08-24T13:44:26.671Z,54.61
2018-08-24T13:46:54.741Z,55.56
2018-08-24T13:49:22.848Z,54.82
2018-08-24T13:51:50.948Z,54.82
2018-08-24T13:54:19.035Z,55.45
2018-08-24T13:56:47.103Z,53.98
2018-08-24T13:59:21.606Z,52.49
2018-08-24T14:01:49.631Z,51.70
2018-08-24T14:04:17.804Z,52.64
2018-08-24T14:06:45.924Z,51.63
2018-08-24T14:09:13.991Z,51.94
2018-08-24T14:11:42.162Z,49.90
2018-08-24T14:14:10.382Z,48.48
2018-08-24T14:16:38.988Z,48.38
2018-08-24T14:19:07.083Z,48.00
2018-08-24T14:21:35.331Z,48.82
2018-08-24T14:24:03.412Z,47.74
2018-08-24T14:26:31.577Z,45.45
2018-08-24T14:28:59.656Z,47.72
2018-08-24T14:31:27.761Z,48.55
2018-08-24T14:33:55.831Z,47.79
2018-08-24T14:36:23.898Z,44.28
2018-08-24T14:39:14.307Z,46.04
2018-08-24T14:41:42.395Z,44.64
2018-08-24T14:44:17.225Z,43.42
2018-08-24T14:46:45.303Z,43.90
2018-08-24T14:49:13.389Z,43.35
2018-08-24T14:51:41.451Z,43.28
2018-08-24T14:54:09.533Z,43.32
2018-08-24T14:56:37.650Z,45.46
2018-08-24T14:59:05.913Z,40.44
2018-08-24T15:01:34.113Z,40.88
2018-08-24T15:04:02.223Z,40.69
2018-08-24T15:06:30.367Z,37.27
2018-08-24T15:08:58.445Z,37.72
2018-08-24T15:11:56.306Z,40.61
2018-08-24T15:14:24.445Z,35.76
2018-08-24T15:16:52.561Z,37.23
2018-08-24T15:19:20.676Z,38.14
2018-08-24T15:21:48.754Z,37.32
2018-08-24T15:24:18.477Z,35.71
2018-08-24T15:26:54.439Z,35.32
2018-08-24T15:35:38.659Z,36.91
2018-08-24T16:05:26.557Z,39.47
2018-08-24T16:07:54.634Z,39.81
2018-08-24T16:10:22.726Z,38.98
2018-08-24T16:12:50.836Z,39.07
2018-08-24T16:15:18.930Z,39.29
2018-08-24T16:17:51.268Z,41.29
2018-08-24T16:20:19.314Z,41.40
2018-08-24T16:22:47.387Z,41.90
2018-08-24T16:25:15.475Z,41.94
2018-08-24T16:27:43.520Z,41.37
2018-08-24T16:30:11.601Z,41.97
2018-08-24T16:32:39.664Z,41.48
2018-08-24T16:35:07.715Z,41.34
2018-08-24T16:37:35.775Z,41.63
2018-08-24T16:40:03.870Z,41.60
2018-08-24T16:42:31.935Z,41.19
2018-08-24T16:45:00.025Z,41.48
2018-08-24T16:47:28.096Z,42.31
2018-08-24T16:49:56.176Z,41.88
2018-08-24T16:52:24.271Z,42.39
2018-08-24T16:54:52.355Z,41.55
2018-08-24T16:57:20.415Z,42.04
2018-08-24T16:59:48.511Z,41.50
2018-08-24T17:02:16.585Z,42.09
2018-08-24T17:04:44.689Z,41.80
2018-08-24T17:07:12.752Z,42.27
2018-08-24T17:09:40.831Z,41.91
2018-08-24T17:12:08.888Z,41.84
2018-08-24T17:14:36.949Z,42.31
2018-08-24T17:17:05.219Z,42.12
2018-08-24T17:19:33.291Z,41.88
2018-08-24T17:22:01.373Z,42.46
2018-08-24T17:24:29.436Z,42.43
2018-08-24T17:26:57.498Z,43.23
2018-08-24T17:29:25.644Z,43.15
2018-08-24T17:31:53.755Z,43.39
2018-08-24T17:34:21.839Z,43.02
2018-08-24T17:36:49.917Z,43.58
2018-08-24T17:39:17.984Z,43.82
2018-08-24T17:41:46.107Z,43.71
2018-08-24T17:44:14.128Z,43.39
2018-08-24T17:46:42.192Z,42.93
2018-08-24T17:49:10.260Z,43.47
2018-08-24T17:51:38.330Z,44.24
2018-08-24T17:54:06.514Z,44.11
2018-08-24T17:56:34.685Z,44.13
2018-08-24T17:59:02.779Z,44.33
2018-08-24T18:01:30.851Z,43.54
2018-08-24T18:03:58.957Z,44.51
2018-08-24T18:06:27.070Z,43.90
2018-08-24T18:08:55.137Z,43.34
2018-08-24T18:11:23.217Z,44.84
2018-08-24T18:13:51.496Z,43.86
2018-08-24T18:16:19.552Z,44.01
2018-08-24T18:18:48.765Z,45.11
2018-08-24T18:21:20.158Z,43.91
2018-08-24T18:24:02.016Z,44.79
2018-08-24T18:26:32.432Z,44.95
2018-08-24T18:29:02.677Z,43.77
2018-08-24T18:31:34.066Z,44.87
2018-08-24T18:34:06.471Z,44.69
2018-08-24T18:36:35.729Z,45.19
2018-08-24T18:39:15.862Z,44.21
2018-08-24T18:41:45.208Z,44.54
2018-08-24T18:44:15.418Z,44.72
2018-08-24T18:46:45.266Z,44.18
2018-08-24T18:49:17.053Z,44.36
2018-08-24T18:51:55.340Z,43.83
2018-08-24T18:54:26.439Z,43.55
2018-08-24T18:57:12.315Z,44.69
2018-08-24T18:59:45.473Z,43.82
2018-08-24T19:02:14.253Z,42.88
2018-08-24T19:04:43.833Z,42.83
2018-08-24T19:07:14.726Z,42.56
2018-08-24T19:09:43.024Z,43.13
2018-08-24T19:12:16.655Z,42.16
2018-08-24T19:14:44.986Z,41.86
2018-08-24T19:19:22.305Z,42.39
2018-08-24T19:21:57.150Z,42.62
2018-08-24T19:24:31.825Z,42.78
2018-08-24T19:27:04.699Z,42.85
2018-08-24T19:29:50.048Z,42.54
2018-08-24T19:32:19.161Z,43.68
2018-08-24T19:34:52.643Z,43.39
2018-08-24T19:37:21.828Z,43.12
2018-08-24T19:39:59.904Z,42.85
2018-08-24T19:42:28.773Z,43.51
2018-08-24T19:45:01.940Z,43.04
2018-08-24T19:47:35.708Z,42.29
2018-08-24T19:50:03.994Z,42.62
2018-08-24T19:52:35.790Z,45.67
2018-08-24T19:55:13.795Z,43.17
2018-08-24T19:57:49.318Z,43.36
2018-08-24T20:00:22.221Z,43.09
2018-08-24T20:02:54.506Z,43.79
2018-08-24T20:05:24.607Z,43.72
2018-08-24T20:08:03.697Z,43.10
2018-08-24T20:10:32.927Z,44.03
2018-08-24T20:13:06.038Z,44.04
2018-08-24T20:15:41.098Z,43.85
2018-08-24T20:18:12.104Z,43.83
2018-08-24T20:20:44.117Z,43.73
2018-08-24T20:23:15.204Z,44.32
2018-08-24T20:25:44.626Z,43.28
2018-08-24T20:28:13.587Z,44.56
2018-08-24T20:30:41.869Z,42.76
2018-08-24T20:33:12.118Z,44.16
2018-08-24T20:35:41.521Z,43.67
2018-08-24T20:38:18.927Z,43.38
2018-08-24T20:40:54.043Z,43.05
2018-08-24T20:43:23.328Z,43.49
2018-08-24T20:45:54.044Z,44.81
2018-08-24T20:48:28.958Z,43.42
2018-08-24T20:51:03.062Z,43.79
2018-08-24T20:53:31.324Z,44.13
2018-08-24T20:56:15.519Z,43.67
2018-08-24T20:58:44.737Z,42.79
2018-08-24T21:01:13.264Z,43.88
2018-08-24T21:03:43.073Z,43.82
2018-08-24T21:06:12.245Z,43.56
2018-08-24T21:08:51.410Z,43.58
2018-08-24T21:11:30.045Z,43.00
2018-08-24T21:13:58.864Z,44.54
2018-08-24T21:16:28.152Z,44.42
2018-08-24T21:18:56.545Z,44.47
2018-08-24T21:21:26.612Z,44.19
2018-08-24T21:23:55.840Z,45.01
2018-08-24T21:26:24.488Z,44.61
2018-08-24T21:28:53.466Z,44.70
2018-08-24T21:31:22.829Z,45.36
2018-08-24T21:33:58.243Z,44.99
2018-08-24T21:36:28.062Z,46.03
2018-08-24T21:38:59.421Z,44.44
2018-08-24T21:41:30.980Z,44.07
2018-08-24T21:44:02.924Z,44.84
2018-08-24T21:46:31.039Z,46.31
2018-08-24T21:51:35.004Z,47.39
2018-08-24T21:54:03.690Z,49.02
2018-08-24T21:56:31.923Z,47.84
2018-08-24T21:59:05.746Z,47.92
2018-08-24T22:01:37.607Z,47.77
2018-08-24T22:04:09.504Z,48.67
2018-08-24T22:06:39.831Z,50.04
2018-08-24T22:09:14.302Z,48.14
2018-08-24T22:11:48.427Z,49.50
2018-08-24T22:14:17.876Z,48.95
2018-08-24T22:16:47.265Z,49.62
2018-08-24T22:19:23.507Z,50.20
2018-08-24T22:21:52.556Z,50.63
2018-08-24T22:31:09.885Z,50.93
2018-08-24T22:33:41.277Z,50.30
2018-08-24T22:36:10.913Z,48.87
2018-08-24T22:38:44.359Z,49.79
2018-08-24T22:41:13.992Z,49.32
2018-08-24T22:43:43.239Z,49.47
2018-08-24T22:46:11.356Z,50.74
2018-08-24T22:48:39.500Z,50.50
2018-08-24T22:51:07.684Z,51.53
2018-08-24T22:53:35.770Z,50.59
2018-08-24T22:56:03.836Z,52.29
2018-08-24T22:58:31.938Z,52.01
2018-08-24T23:01:00.032Z,51.43
2018-08-24T23:03:28.110Z,52.81
2018-08-24T23:05:56.216Z,52.36
2018-08-24T23:08:24.303Z,52.04
2018-08-24T23:10:52.363Z,53.27
2018-08-24T23:13:20.462Z,52.51
2018-08-24T23:15:48.538Z,52.66
2018-08-24T23:18:16.631Z,53.07
2018-08-24T23:20:44.715Z,51.64
2018-08-24T23:23:12.831Z,52.66
2018-08-24T23:25:40.908Z,53.95
2018-08-24T23:28:09.041Z,51.87
2018-08-24T23:30:37.149Z,53.07
2018-08-24T23:33:05.255Z,52.74
2018-08-24T23:35:33.381Z,51.63
2018-08-24T23:38:01.544Z,52.67
2018-08-24T23:40:29.626Z,53.18
2018-08-24T23:42:57.727Z,52.11
2018-08-24T23:45:25.819Z,50.71
2018-08-24T23:47:53.910Z,50.18
2018-08-24T23:50:22.013Z,50.12
2018-08-24T23:52:50.102Z,49.83
2018-08-24T23:55:18.188Z,49.95
2018-08-24T23:57:46.269Z,50.43
